Terminal Aerodrome Forecast
Issued by NWS Duluth, MN

Home | Current Version | Previous Version | Text Only | Print | Product List | Glossary On
Versions: 1 2 3 4 5 6 7 8 9 10 11 12 13 14 15 16 17 18 19 20 21 22 23 24 25 26 27 28 29 30
000
FTUS43 KDLH 042332
TAFINL
TAF
KINL 042332Z 0500/0524 20008G15KT 6SM HZ FU SKC
     FM050200 15006KT 6SM HZ FU SCT250
     FM050800 17005KT P6SM -SHRA BKN050 OVC070 WS015/21040KT
     FM051200 18005KT P6SM VCSH SCT050 BKN250
     FM052000 21007KT P6SM VCTS BKN050CB
     FM052300 24006KT P6SM VCTS BKN050CB=

USA.gov is the U.S. government's official web portal to all federal, state and local government web resources and services.